Time;durP1;ratioP1;P1;durP2;ratioP2;P2;SDS_P1;SDS_P2;PMS_P1;PMS_P2;Temp;Humidity;BMP_temperature;BMP_pressure;BME280_temperature;BME280_humidity;BME280_pressure;Samples;Min_cycle;Max_cycle;Signal;HPM_P1;HPM_P2
2021/11/16 00:00:23;;;;;;;31.30;21.90;;;;;;;3.84;87.48;102033.64;209994;1319;138474;-72
2021/11/16 00:05:42;;;;;;;26.70;21.30;;;;;;;3.92;87.38;102031.55;209624;1322;139583;-75
2021/11/16 00:10:47;;;;;;;30.20;21.90;;;;;;;3.89;87.15;102024.86;210330;1320;138971;-73
2021/11/16 00:15:49;;;;;;;31.10;21.70;;;;;;;3.82;87.50;102016.48;210577;1319;138835;-74
2021/11/16 00:20:54;;;;;;;29.60;22.50;;;;;;;3.80;87.58;102009.95;209807;1320;138275;-74
2021/11/16 00:26:01;;;;;;;28.10;20.80;;;;;;;3.80;87.70;102002.63;210140;1308;138433;-78
2021/11/16 00:31:07;;;;;;;26.30;19.90;;;;;;;3.85;87.58;101995.59;211286;1322;139839;-78
2021/11/16 00:36:12;;;;;;;27.80;20.70;;;;;;;3.93;87.31;101986.17;210659;1322;139367;-76
2021/11/16 00:41:14;;;;;;;25.80;20.80;;;;;;;3.90;87.36;101989.27;210612;1325;138479;-77
2021/11/16 00:46:18;;;;;;;29.60;21.50;;;;;;;3.89;87.25;101981.98;211991;1322;138106;-73
2021/11/16 00:51:22;;;;;;;27.10;19.90;;;;;;;3.91;87.51;101979.11;210058;1322;138510;-78
2021/11/16 00:56:23;;;;;;;25.20;19.50;;;;;;;3.98;87.52;101977.73;211834;1309;139022;-76
2021/11/16 01:01:25;;;;;;;30.10;22.30;;;;;;;4.03;87.13;101980.13;211657;1319;139738;-77
2021/11/16 01:06:27;;;;;;;27.30;20.70;;;;;;;4.03;86.98;101980.45;209880;1322;138749;-74
2021/11/16 01:11:32;;;;;;;26.60;21.30;;;;;;;3.96;87.25;101973.64;210391;1321;138438;-70
2021/11/16 01:16:40;;;;;;;23.30;18.80;;;;;;;3.99;87.47;101969.66;209949;1322;139345;-77
2021/11/16 01:21:42;;;;;;;27.80;19.70;;;;;;;4.02;87.15;101970.20;210516;1320;139172;-74
2021/11/16 01:26:46;;;;;;;28.80;22.00;;;;;;;4.05;87.07;101967.11;211026;1323;139112;-75
2021/11/16 01:31:50;;;;;;;28.80;21.50;;;;;;;4.04;87.14;101958.79;210461;1322;138974;-74
2021/11/16 01:36:52;;;;;;;25.80;19.90;;;;;;;3.91;87.13;101945.25;208972;1322;139199;-74
2021/11/16 01:41:54;;;;;;;27.10;20.10;;;;;;;3.94;87.42;101938.86;209801;1319;139636;-71
2021/11/16 01:46:56;;;;;;;25.50;19.80;;;;;;;4.01;87.16;101929.63;208994;1322;139535;-72
2021/11/16 01:52:01;;;;;;;26.40;20.80;;;;;;;4.08;86.97;101926.47;212572;1320;138746;-74
2021/11/16 01:57:05;;;;;;;26.50;20.20;;;;;;;4.08;86.97;101917.94;212433;1320;138327;-74
2021/11/16 02:02:07;;;;;;;28.10;20.30;;;;;;;3.99;87.21;101913.84;210903;1322;138986;-74
2021/11/16 02:07:08;;;;;;;25.80;20.30;;;;;;;3.92;87.28;101904.78;209449;1325;139125;-73
2021/11/16 02:12:11;;;;;;;25.90;19.40;;;;;;;3.99;87.45;101896.25;210154;1323;139509;-74
2021/11/16 02:17:14;;;;;;;29.10;22.50;;;;;;;4.04;87.28;101887.98;210734;1322;139102;-75
2021/11/16 02:22:19;;;;;;;28.50;20.10;;;;;;;4.04;87.28;101883.95;210331;1322;138457;-74
2021/11/16 02:27:20;;;;;;;28.70;20.90;;;;;;;3.95;87.36;101883.88;209496;1322;138248;-75
2021/11/16 02:32:30;;;;;;;26.10;19.60;;;;;;;3.90;87.53;101884.46;209921;1322;138939;-78
2021/11/16 02:37:32;;;;;;;24.30;18.40;;;;;;;3.90;87.89;101881.33;209839;1325;139380;-74
2021/11/16 02:42:35;;;;;;;29.40;21.50;;;;;;;3.97;87.72;101874.17;209225;1322;139148;-74
2021/11/16 02:47:38;;;;;;;25.80;19.90;;;;;;;4.01;87.29;101870.14;209518;1325;138602;-74
2021/11/16 02:52:40;;;;;;;30.00;22.50;;;;;;;3.92;87.62;101864.31;209429;1325;138328;-74
2021/11/16 02:57:42;;;;;;;29.50;20.50;;;;;;;3.99;87.93;101861.91;209610;1322;139714;-74
2021/11/16 03:02:45;;;;;;;25.60;19.70;;;;;;;4.07;87.52;101858.33;209133;1322;139564;-74
2021/11/16 03:07:55;;;;;;;29.20;22.40;;;;;;;4.11;87.37;101857.80;209603;1325;139108;-74
2021/11/16 03:13:02;;;;;;;29.20;20.70;;;;;;;4.05;87.29;101848.51;209950;1322;138928;-75
2021/11/16 03:18:03;;;;;;;29.40;22.30;;;;;;;3.93;87.72;101842.66;210227;1322;139343;-73
2021/11/16 03:23:16;;;;;;;32.20;20.80;;;;;;;3.94;87.91;101841.58;209815;1322;140416;-75
2021/11/16 03:28:24;;;;;;;28.70;21.30;;;;;;;4.02;87.62;101847.27;209092;1325;139957;-74
2021/11/16 03:33:41;;;;;;;26.40;21.90;;;;;;;4.04;87.81;101847.88;209645;1324;139329;-76
2021/11/16 03:38:43;;;;;;;30.50;22.50;;;;;;;4.08;87.63;101841.21;209197;1325;139118;-76
2021/11/16 03:43:50;;;;;;;30.20;21.50;;;;;;;3.99;88.13;101837.11;209415;1325;138449;-76
2021/11/16 03:49:01;;;;;;;32.20;23.70;;;;;;;4.03;88.22;101831.70;208899;1325;139832;-76
2021/11/16 03:54:05;;;;;;;26.60;21.30;;;;;;;4.13;88.10;101836.59;209687;1325;138556;-73
2021/11/16 03:59:07;;;;;;;33.20;22.90;;;;;;;4.28;87.56;101836.58;208754;1325;139187;-72
2021/11/16 04:04:11;;;;;;;34.50;24.70;;;;;;;4.24;87.38;101832.05;209381;1325;138755;-75
2021/11/16 04:09:13;;;;;;;34.80;24.70;;;;;;;4.22;87.71;101833.90;210068;1312;137572;-73
2021/11/16 04:14:16;;;;;;;30.30;22.90;;;;;;;4.19;88.21;101833.16;209894;1319;138645;-61
2021/11/16 04:19:18;;;;;;;30.90;23.20;;;;;;;4.22;88.25;101837.92;210284;1319;140070;-74
2021/11/16 04:40:22;;;;;;;33.10;25.10;;;;;;;4.21;88.62;101820.69;205440;1357;635905;-70
2021/11/16 05:06:51;;;;;;;38.60;28.20;;;;;;;4.30;88.63;101835.07;207883;1325;138081;-70
2021/11/16 05:11:58;;;;;;;37.20;27.40;;;;;;;4.29;88.87;101831.80;207910;1325;138355;-72
2021/11/16 05:17:00;;;;;;;40.30;27.30;;;;;;;4.36;88.82;101833.36;208255;1322;138468;-73
2021/11/16 05:22:02;;;;;;;41.60;28.80;;;;;;;4.47;88.60;101834.52;208562;1321;138178;-73
2021/11/16 05:27:04;;;;;;;42.30;28.50;;;;;;;4.54;88.27;101838.21;208854;1322;138187;-73
2021/11/16 05:32:06;;;;;;;41.30;30.10;;;;;;;4.48;88.44;101841.84;208710;1321;139142;-74
2021/11/16 05:37:09;;;;;;;46.50;32.50;;;;;;;4.43;88.67;101833.85;209107;1325;141395;-74
2021/11/16 05:42:10;;;;;;;44.90;31.30;;;;;;;4.46;88.80;101834.96;208984;1322;138681;-73
2021/11/16 05:47:13;;;;;;;43.20;29.80;;;;;;;4.54;88.50;101843.09;209503;1325;139496;-73
2021/11/16 05:52:17;;;;;;;43.90;29.60;;;;;;;4.57;88.53;101847.65;210617;1325;139144;-76
2021/11/16 05:57:37;;;;;;;44.30;31.90;;;;;;;4.59;88.64;101846.30;211402;1307;139283;-71
2021/11/16 06:02:40;;;;;;;44.90;30.30;;;;;;;4.60;88.57;101856.58;211246;1308;137991;-72
2021/11/16 06:07:45;;;;;;;45.00;31.80;;;;;;;4.57;88.49;101860.39;209804;1320;137937;-74
2021/11/16 06:12:48;;;;;;;44.50;31.90;;;;;;;4.59;88.52;101860.08;211688;1309;138819;-71
2021/11/16 06:18:02;;;;;;;44.00;33.40;;;;;;;4.68;88.32;101858.80;212564;1318;138565;-73
2021/11/16 06:23:10;;;;;;;41.10;29.70;;;;;;;4.66;88.22;101859.05;211627;1309;138021;-72
2021/11/16 06:28:13;;;;;;;48.10;31.90;;;;;;;4.64;88.31;101862.11;210986;1321;137985;-72
2021/11/16 06:33:21;;;;;;;45.80;31.40;;;;;;;4.63;88.43;101858.50;209941;1319;138713;-72
2021/11/16 06:38:22;;;;;;;42.60;30.00;;;;;;;4.63;88.38;101866.88;211438;1309;138643;-71
2021/11/16 06:43:35;;;;;;;41.80;31.50;;;;;;;4.68;88.32;101865.58;211029;1328;138443;-72
2021/11/16 06:48:36;;;;;;;45.50;32.00;;;;;;;4.69;87.87;101865.02;209708;1322;139235;-72
2021/11/16 06:53:41;;;;;;;50.50;31.00;;;;;;;4.70;87.56;101864.80;210338;1319;139706;-74
2021/11/16 06:58:50;;;;;;;46.40;32.20;;;;;;;4.70;87.69;101864.10;209819;1309;138567;-72
2021/11/16 07:03:55;;;;;;;45.70;31.30;;;;;;;4.75;87.76;101871.88;210188;1319;138546;-72
2021/11/16 07:08:57;;;;;;;44.40;30.60;;;;;;;4.78;87.47;101862.95;210394;1320;140443;-76
2021/11/16 07:14:06;;;;;;;48.00;33.30;;;;;;;4.79;87.58;101855.23;210052;1324;138305;-73
2021/11/16 07:19:10;;;;;;;42.80;30.10;;;;;;;4.79;87.65;101848.77;210710;1322;137900;-72
2021/11/16 07:24:21;;;;;;;51.30;33.80;;;;;;;4.76;87.71;101842.66;209427;1322;138316;-74
2021/11/16 07:29:38;;;;;;;48.30;29.70;;;;;;;4.76;87.59;101834.78;210534;1323;138642;-73
2021/11/16 07:38:07;;;;;;;41.90;30.80;;;;;;;4.89;87.31;101836.36;206279;1347;636433;-72
2021/11/16 07:43:18;;;;;;;41.00;30.60;;;;;;;4.90;86.76;101827.78;207866;1328;137778;-72
2021/11/16 07:48:33;;;;;;;41.30;28.80;;;;;;;4.87;86.94;101820.23;208457;1326;137612;-73
2021/11/16 07:53:38;;;;;;;45.80;31.00;;;;;;;4.87;86.69;101822.52;209746;1325;138297;-73
2021/11/16 07:58:52;;;;;;;47.20;33.40;;;;;;;4.90;86.78;101816.77;210186;1315;138869;-73
2021/11/16 08:14:38;;;;;;;45.10;31.80;;;;;;;4.98;86.48;101809.33;210403;1313;138021;-76
2021/11/16 08:19:41;;;;;;;44.00;31.70;;;;;;;5.01;86.73;101802.71;210454;1326;139156;-71
2021/11/16 08:24:50;;;;;;;40.10;28.60;;;;;;;5.07;86.47;101795.43;208830;1326;138589;-73
2021/11/16 08:30:07;;;;;;;46.00;30.70;;;;;;;5.08;86.19;101793.95;208590;1330;138401;-75
2021/11/16 08:35:15;;;;;;;43.00;31.50;;;;;;;5.09;86.25;101792.86;209225;1332;138527;-73
2021/11/16 08:40:28;;;;;;;50.60;33.80;;;;;;;5.07;86.09;101790.34;209399;1332;138310;-73
2021/11/16 08:45:35;;;;;;;43.70;31.50;;;;;;;5.09;86.46;101785.69;210020;1316;138211;-73
2021/11/16 08:50:54;;;;;;;41.80;31.10;;;;;;;5.16;86.00;101774.50;209728;1326;138479;-72
2021/11/16 08:56:05;;;;;;;43.70;30.40;;;;;;;5.21;85.62;101771.27;209856;1326;138301;-74
2021/11/16 09:01:09;;;;;;;44.80;32.50;;;;;;;5.20;86.00;101770.07;209684;1326;138337;-74
2021/11/16 09:06:28;;;;;;;41.50;29.80;;;;;;;5.22;85.55;101773.33;210680;1326;139121;-72
2021/11/16 09:11:32;;;;;;;43.30;29.50;;;;;;;5.18;84.81;101756.55;209537;1329;138000;-70
2021/11/16 09:16:39;;;;;;;38.90;29.80;;;;;;;5.29;85.39;101749.68;209362;1329;139033;-67
2021/11/16 09:21:49;;;;;;;40.60;29.50;;;;;;;5.37;85.01;101749.73;210249;1323;225790;-75
2021/11/16 09:32:15;;;;;;;42.70;31.00;;;;;;;5.29;84.76;101745.97;210548;1326;138186;-74
2021/11/16 09:37:22;;;;;;;39.20;27.20;;;;;;;5.25;84.99;101749.37;210226;1319;139407;-76
2021/11/16 09:42:28;;;;;;;38.40;26.90;;;;;;;5.22;84.64;101744.10;210173;1323;139015;-72
2021/11/16 09:47:38;;;;;;;42.60;30.40;;;;;;;5.23;84.62;101749.67;211046;1310;138681;-74
2021/11/16 09:52:51;;;;;;;41.20;29.40;;;;;;;5.23;84.81;101752.80;210723;1321;138114;-71
2021/11/16 09:58:02;;;;;;;41.40;28.60;;;;;;;5.21;84.81;101749.25;210764;1323;138658;-77
2021/11/16 10:03:15;;;;;;;42.50;29.10;;;;;;;5.20;84.40;101742.80;211045;1323;138866;-72
2021/11/16 10:08:26;;;;;;;37.00;27.70;;;;;;;5.24;84.42;101734.54;209816;1323;138813;-69
2021/11/16 10:13:30;;;;;;;37.30;29.10;;;;;;;5.31;84.37;101731.56;210247;1323;138390;-73
2021/11/16 10:18:38;;;;;;;39.80;30.10;;;;;;;5.35;84.03;101727.48;210297;1323;138210;-69
2021/11/16 10:23:56;;;;;;;41.70;29.30;;;;;;;5.35;84.39;101723.99;210797;1323;141393;-72
2021/11/16 10:28:58;;;;;;;42.90;30.80;;;;;;;5.36;84.42;101723.39;212144;1322;139366;-70
2021/11/16 10:34:00;;;;;;;41.70;29.50;;;;;;;5.42;84.36;101719.23;211123;1323;138715;-75
2021/11/16 10:39:03;;;;;;;40.20;29.50;;;;;;;5.45;84.13;101716.27;211338;1323;137902;-75
2021/11/16 10:49:27;;;;;;;48.00;32.00;;;;;;;5.45;84.40;101705.20;211122;1320;138401;-74
2021/11/16 10:54:32;;;;;;;37.10;28.50;;;;;;;5.51;84.52;101701.41;210273;1322;139538;-71
2021/11/16 10:59:35;;;;;;;41.50;30.50;;;;;;;5.60;84.11;101701.73;209090;1322;138987;-73
2021/11/16 11:04:44;;;;;;;48.40;35.40;;;;;;;5.67;83.51;101691.40;211395;1320;139007;-70
2021/11/16 11:10:00;;;;;;;40.30;29.90;;;;;;;5.63;83.83;101687.54;210481;1310;138790;-68
2021/11/16 11:15:01;;;;;;;46.00;30.70;;;;;;;5.59;83.77;101679.90;210730;1320;139000;-73
2021/11/16 11:20:16;;;;;;;46.00;31.00;;;;;;;5.65;84.00;101676.11;211019;1326;139640;-76
2021/11/16 11:25:37;;;;;;;35.70;27.20;;;;;;;5.69;83.47;101668.16;209901;1313;139152;-73
2021/11/16 11:30:45;;;;;;;39.00;28.40;;;;;;;5.70;83.65;101662.73;210013;1323;139157;-72
2021/11/16 11:35:49;;;;;;;43.80;31.90;;;;;;;5.72;83.50;101664.14;210792;1322;138227;-74
2021/11/16 11:40:57;;;;;;;44.10;30.40;;;;;;;5.71;83.64;101658.29;210445;1322;137912;-74
2021/11/16 11:46:01;;;;;;;43.10;30.70;;;;;;;5.70;83.91;101654.84;210308;1323;141082;-72
2021/11/16 11:51:11;;;;;;;38.40;30.70;;;;;;;5.74;83.80;101651.09;210564;1310;139339;-74
2021/11/16 12:08:59;;;;;;;46.20;32.00;;;;;;;5.79;84.12;101623.70;205447;1356;636410;-74
2021/11/16 12:14:06;;;;;;;45.10;31.30;;;;;;;5.83;84.08;101622.20;208845;1332;138545;-73
2021/11/16 12:19:19;;;;;;;39.50;29.80;;;;;;;5.88;84.03;101615.95;210828;1309;222111;-75
2021/11/16 12:24:33;;;;;;;40.10;29.80;;;;;;;5.90;83.76;101615.36;210281;1319;138016;-74
2021/11/16 12:30:02;;;;;;;42.20;30.90;;;;;;;5.93;83.76;101608.04;210662;1319;138176;-72
2021/11/16 12:35:12;;;;;;;49.00;34.80;;;;;;;5.91;84.13;101602.52;209735;1320;138102;-71
2021/11/16 12:40:18;;;;;;;51.10;32.10;;;;;;;5.94;84.32;101600.92;210836;1309;139119;-72
2021/11/16 12:45:42;;;;;;;42.70;31.10;;;;;;;5.99;84.26;101594.20;210492;1323;138251;-73
2021/11/16 12:51:09;;;;;;;47.50;34.10;;;;;;;5.98;84.21;101595.48;209925;1322;138535;-74
2021/11/16 12:56:11;;;;;;;43.70;31.90;;;;;;;5.98;84.04;101589.19;211049;1311;138469;-72
2021/11/16 13:01:48;;;;;;;46.80;33.60;;;;;;;5.94;84.25;101588.52;210421;1319;138147;-76
2021/11/16 13:11:58;;;;;;;40.30;29.20;;;;;;;5.97;83.98;101573.11;215638;1309;138380;-73
2021/11/16 13:16:59;;;;;;;44.90;31.80;;;;;;;6.02;84.04;101573.70;214773;1319;138150;-74
2021/11/16 13:22:01;;;;;;;45.90;32.80;;;;;;;6.04;84.16;101570.41;216214;1319;138343;-74
2021/11/16 13:27:03;;;;;;;41.20;30.50;;;;;;;6.03;83.77;101563.48;216056;1319;138708;-73
2021/11/16 13:32:12;;;;;;;38.80;27.60;;;;;;;6.04;82.93;101555.52;216076;1319;137236;-75
2021/11/16 13:37:25;;;;;;;34.80;25.50;;;;;;;6.02;82.56;101546.59;215835;1306;138956;-75
2021/11/16 13:42:31;;;;;;;42.40;28.70;;;;;;;6.04;82.49;101547.48;215474;1319;139170;-73
2021/11/16 13:47:41;;;;;;;37.30;26.90;;;;;;;6.06;82.56;101540.55;214114;1323;138685;-73
2021/11/16 13:52:58;;;;;;;39.90;27.40;;;;;;;6.03;83.21;101546.30;216016;1319;137917;-73
2021/11/16 13:58:11;;;;;;;40.10;28.50;;;;;;;5.98;82.99;101545.22;216139;1317;138015;-72
2021/11/16 14:03:27;;;;;;;38.90;27.80;;;;;;;5.96;82.71;101548.52;215902;1322;139416;-75
2021/11/16 14:08:38;;;;;;;40.60;29.40;;;;;;;6.00;82.64;101545.31;214762;1323;139742;-73
2021/11/16 14:13:47;;;;;;;40.90;29.70;;;;;;;6.02;82.80;101546.75;215957;1319;139053;-73
2021/11/16 14:18:49;;;;;;;37.40;27.90;;;;;;;6.01;82.97;101543.11;215095;1307;138908;-73
2021/11/16 14:23:53;;;;;;;40.60;28.90;;;;;;;5.96;82.68;101542.58;216368;1319;138397;-72
2021/11/16 14:28:54;;;;;;;43.50;30.60;;;;;;;5.92;82.84;101537.58;216260;1309;138653;-74
2021/11/16 14:33:59;;;;;;;39.30;27.80;;;;;;;5.95;82.92;101538.25;216221;1319;138764;-75
2021/11/16 14:39:09;;;;;;;42.20;30.50;;;;;;;5.95;82.79;101539.80;215972;1309;138694;-72
2021/11/16 14:44:19;;;;;;;36.90;26.30;;;;;;;5.94;82.75;101537.11;216195;1306;138066;-73
2021/11/16 14:54:58;;;;;;;39.80;29.00;;;;;;;5.91;82.92;101527.64;216129;1319;139627;-73
2021/11/16 15:00:18;;;;;;;39.70;28.90;;;;;;;5.95;82.72;101531.28;216375;1319;139016;-73
2021/11/16 15:05:20;;;;;;;39.90;29.00;;;;;;;5.90;82.87;101528.20;216124;1319;138314;-73
2021/11/16 15:10:24;;;;;;;44.40;31.30;;;;;;;5.88;83.04;101523.23;215321;1319;138394;-74
2021/11/16 15:15:35;;;;;;;40.90;29.10;;;;;;;5.87;82.87;101525.78;216122;1319;138915;-72
2021/11/16 15:21:01;;;;;;;39.10;28.80;;;;;;;5.88;82.95;101520.48;216390;1309;138413;-68
2021/11/16 15:26:08;;;;;;;50.20;36.10;;;;;;;5.90;83.25;101508.63;213954;1317;138014;-72
2021/11/16 15:31:12;;;;;;;42.20;29.50;;;;;;;5.88;83.27;101506.45;214762;1317;138149;-74
2021/11/16 15:36:37;;;;;;;41.20;32.10;;;;;;;5.85;83.32;101510.35;216170;1319;138168;-73
2021/11/16 15:41:50;;;;;;;42.30;30.80;;;;;;;5.85;83.34;101508.91;216099;1319;138666;-74
2021/11/16 15:47:03;;;;;;;44.50;31.50;;;;;;;5.89;83.29;101505.90;216112;1319;141226;-76
2021/11/16 16:08:11;;;;;;;48.30;33.90;;;;;;;5.89;83.85;101494.86;205208;1349;656165;-74
2021/11/16 16:13:15;;;;;;;46.20;33.20;;;;;;;5.85;83.76;101493.52;207107;1332;138539;-72
2021/11/16 16:18:28;;;;;;;43.30;32.40;;;;;;;5.87;83.44;101492.18;207372;1331;148525;-73
2021/11/16 16:23:45;;;;;;;47.10;33.70;;;;;;;5.86;83.59;101492.94;208602;1325;138837;-76
2021/11/16 16:28:51;;;;;;;48.70;35.30;;;;;;;5.83;83.84;101493.33;208908;1332;137828;-76
2021/11/16 16:33:54;;;;;;;50.50;34.10;;;;;;;5.80;83.80;101497.54;208869;1325;138012;-74
2021/11/16 16:38:55;;;;;;;49.00;33.50;;;;;;;5.79;83.94;101489.95;208216;1328;138812;-76
2021/11/16 16:44:04;;;;;;;38.00;29.60;;;;;;;5.82;83.90;101481.13;208872;1325;141664;-74
2021/11/16 16:49:12;;;;;;;46.80;31.90;;;;;;;5.82;83.71;101479.27;210294;1317;138096;-77
2021/11/16 16:54:17;;;;;;;44.00;32.80;;;;;;;5.81;83.71;101478.77;210003;1329;138334;-74
2021/11/16 16:59:25;;;;;;;49.40;34.90;;;;;;;5.82;83.94;101473.96;209045;1326;138569;-75
2021/11/16 17:04:35;;;;;;;43.40;31.10;;;;;;;5.82;83.97;101473.63;208908;1329;138620;-78
2021/11/16 17:09:37;;;;;;;45.00;31.50;;;;;;;5.83;84.25;101466.25;209315;1326;139846;-75
2021/11/16 17:14:44;;;;;;;40.90;30.20;;;;;;;5.86;83.80;101460.06;209349;1326;138943;-75
2021/11/16 17:19:47;;;;;;;46.00;33.20;;;;;;;5.83;83.45;101451.88;208067;1326;138308;-75
2021/11/16 17:24:49;;;;;;;41.50;30.20;;;;;;;5.79;83.49;101443.04;208824;1332;137982;-76
2021/11/16 17:29:51;;;;;;;48.00;34.30;;;;;;;5.65;83.72;101437.77;208811;1325;140073;-76
2021/11/16 17:34:53;;;;;;;43.60;30.40;;;;;;;5.58;83.93;101433.16;208420;1329;138762;-76
2021/11/16 17:39:55;;;;;;;36.70;28.30;;;;;;;5.57;83.93;101423.24;208683;1329;138937;-76
2021/11/16 17:44:58;;;;;;;46.10;31.90;;;;;;;5.53;83.43;101414.44;208089;1332;138718;-75
2021/11/16 17:50:02;;;;;;;42.30;30.50;;;;;;;5.42;84.03;101411.22;207498;1328;138575;-76
2021/11/16 17:55:04;;;;;;;47.30;33.90;;;;;;;5.34;84.34;101406.98;208003;1326;137881;-75
2021/11/16 18:00:08;;;;;;;48.70;34.50;;;;;;;5.26;84.60;101403.02;208476;1329;138407;-77
2021/11/16 18:05:37;;;;;;;46.00;32.30;;;;;;;5.19;84.98;101392.77;208288;1328;138471;-76
2021/11/16 18:10:47;;;;;;;48.00;34.40;;;;;;;5.19;85.04;101393.44;207973;1326;139279;-75
2021/11/16 18:15:48;;;;;;;50.80;36.50;;;;;;;5.19;85.17;101393.10;207822;1334;138878;-76
2021/11/16 18:20:50;;;;;;;54.20;37.40;;;;;;;5.13;85.17;101385.92;207424;1329;139308;-76
2021/11/16 18:25:54;;;;;;;55.70;40.30;;;;;;;5.03;85.35;101373.09;207815;1335;138110;-75
2021/11/16 18:30:58;;;;;;;55.20;37.40;;;;;;;4.95;85.94;101371.67;207855;1330;137868;-76
2021/11/16 18:36:00;;;;;;;48.80;35.80;;;;;;;4.88;86.11;101373.31;207747;1332;138834;-75
2021/11/16 18:41:14;;;;;;;46.90;35.20;;;;;;;4.83;86.09;101370.81;207827;1326;139434;-76
2021/11/16 18:46:25;;;;;;;56.00;40.70;;;;;;;4.84;86.23;101370.79;207384;1326;138404;-75
2021/11/16 18:51:37;;;;;;;55.80;40.60;;;;;;;4.81;85.85;101366.95;208562;1329;140826;-76
2021/11/16 18:56:46;;;;;;;60.60;41.80;;;;;;;4.71;86.10;101366.15;208356;1329;138497;-75
2021/11/16 19:01:48;;;;;;;58.20;39.20;;;;;;;4.59;86.51;101363.67;208434;1329;138365;-76
2021/11/16 19:06:50;;;;;;;54.60;37.50;;;;;;;4.56;86.66;101363.70;207982;1328;139171;-77
2021/11/16 19:11:53;;;;;;;52.30;37.60;;;;;;;4.53;86.51;101367.55;208865;1329;139413;-76
2021/11/16 19:17:03;;;;;;;54.20;40.40;;;;;;;4.48;86.37;101366.29;207192;1328;138456;-76
2021/11/16 19:22:07;;;;;;;56.80;39.70;;;;;;;4.40;86.45;101364.80;208306;1331;138374;-75
2021/11/16 19:27:14;;;;;;;53.00;39.70;;;;;;;4.29;86.63;101363.20;209360;1329;138222;-76
2021/11/16 19:32:16;;;;;;;61.70;41.80;;;;;;;4.24;86.84;101368.18;208082;1329;137923;-77
2021/11/16 19:37:22;;;;;;;58.20;41.10;;;;;;;4.02;87.27;101364.52;209004;1329;139589;-76
2021/11/16 19:42:37;;;;;;;60.80;40.90;;;;;;;4.00;87.57;101363.63;209692;1334;140478;-75
2021/11/16 19:47:42;;;;;;;54.80;40.20;;;;;;;3.91;87.57;101359.27;209330;1335;138772;-79
2021/11/16 19:52:46;;;;;;;63.40;45.90;;;;;;;3.85;88.05;101359.27;210099;1317;138743;-75
2021/11/16 19:57:50;;;;;;;72.70;46.70;;;;;;;3.89;87.65;101353.46;208272;1329;138581;-74
2021/11/16 20:03:00;;;;;;;69.10;48.80;;;;;;;3.82;87.64;101357.66;208238;1332;138565;-76
2021/11/16 20:08:07;;;;;;;68.30;47.70;;;;;;;3.80;87.58;101353.64;208490;1329;138802;-76
2021/11/16 20:13:09;;;;;;;62.90;47.10;;;;;;;3.80;87.28;101347.52;208955;1326;139054;-76
2021/11/16 20:18:10;;;;;;;67.80;47.80;;;;;;;3.69;87.47;101344.80;210112;1326;138655;-76
2021/11/16 20:23:13;;;;;;;69.60;48.90;;;;;;;3.71;87.16;101349.23;209098;1329;139202;-76
2021/11/16 20:28:24;;;;;;;61.70;46.40;;;;;;;3.51;87.01;101347.71;208916;1323;138426;-75
2021/11/16 20:33:29;;;;;;;68.90;49.20;;;;;;;3.36;88.12;101346.11;210043;1328;138173;-77
2021/11/16 20:38:37;;;;;;;66.50;46.50;;;;;;;3.37;87.94;101346.36;208993;1325;139065;-78
2021/11/16 20:59:26;;;;;;;68.50;48.80;;;;;;;3.33;87.53;101327.29;208356;1321;138369;-75
2021/11/16 21:04:30;;;;;;;65.40;47.00;;;;;;;3.24;87.78;101328.79;209890;1326;138256;-76
2021/11/16 21:09:32;;;;;;;66.10;46.20;;;;;;;3.11;88.18;101327.75;208720;1325;139366;-77
2021/11/16 21:14:37;;;;;;;67.80;44.70;;;;;;;3.06;88.39;101318.94;209162;1329;139130;-72
2021/11/16 21:20:02;;;;;;;60.60;43.70;;;;;;;3.13;88.06;101313.00;209849;1328;138600;-76
2021/11/16 21:25:39;;;;;;;63.50;45.80;;;;;;;3.08;88.47;101306.31;205020;1324;2950265;-75
2021/11/16 21:31:00;;;;;;;60.10;42.80;;;;;;;3.11;88.02;101306.84;210363;1328;138074;-78
2021/11/16 21:36:06;;;;;;;61.70;44.00;;;;;;;2.97;88.09;101306.75;209116;1326;137185;-78
2021/11/16 21:41:13;;;;;;;61.80;43.30;;;;;;;2.89;88.50;101305.27;209778;1328;138927;-77
2021/11/16 21:46:15;;;;;;;62.30;44.50;;;;;;;2.89;88.72;101302.11;209650;1325;139316;-75
2021/11/16 21:51:19;;;;;;;62.20;42.50;;;;;;;2.83;88.52;101296.35;209922;1312;139102;-76
2021/11/16 21:56:24;;;;;;;53.10;38.00;;;;;;;2.77;88.61;101291.96;209234;1328;139026;-77
2021/11/16 22:01:32;;;;;;;53.90;39.20;;;;;;;2.61;88.58;101289.32;209660;1315;138579;-79
2021/11/16 22:06:39;;;;;;;50.20;37.90;;;;;;;2.41;88.99;101287.77;210485;1313;138443;-76
2021/11/16 22:11:42;;;;;;;49.80;37.60;;;;;;;2.27;89.71;101290.74;209616;1329;139175;-77
2021/11/16 22:16:52;;;;;;;52.80;37.60;;;;;;;2.39;89.69;101285.27;209230;1329;139025;-75
2021/11/16 22:21:54;;;;;;;43.60;35.10;;;;;;;2.23;88.95;101287.61;209946;1327;138809;-74
2021/11/16 22:26:57;;;;;;;44.30;35.30;;;;;;;2.19;89.04;101290.09;209727;1330;137834;-77
2021/11/16 22:32:07;;;;;;;46.40;35.50;;;;;;;2.06;89.00;101290.05;209329;1325;139011;-75
2021/11/16 22:37:09;;;;;;;46.40;35.00;;;;;;;2.02;88.74;101293.69;209426;1331;138224;-78
2021/11/16 22:42:11;;;;;;;43.10;34.20;;;;;;;2.02;88.69;101291.12;209823;1325;138624;-75
2021/11/16 22:47:14;;;;;;;41.20;33.50;;;;;;;2.01;88.87;101289.79;210078;1327;138454;-79
